createdAt,value
2019-06-15T00:00:37.752Z,84.62
2019-06-15T00:01:37.876Z,84.91
2019-06-15T00:02:38.018Z,85.00
2019-06-15T00:03:38.154Z,85.30
2019-06-15T00:04:38.297Z,85.00
2019-06-15T00:05:38.428Z,84.53
2019-06-15T00:06:38.563Z,84.14
2019-06-15T00:07:38.696Z,84.91
2019-06-15T00:08:38.833Z,84.14
2019-06-15T00:09:38.973Z,84.33
2019-06-15T00:10:39.097Z,85.00
2019-06-15T00:11:39.242Z,85.20
2019-06-15T00:12:39.372Z,85.30
2019-06-15T00:13:39.498Z,85.68
2019-06-15T00:14:39.647Z,85.10
2019-06-15T00:15:39.773Z,85.54
2019-06-15T00:16:39.951Z,85.16
2019-06-15T00:17:40.081Z,85.20
2019-06-15T00:18:40.210Z,85.30
2019-06-15T00:19:40.351Z,85.58
2019-06-15T00:20:40.515Z,85.87
2019-06-15T00:21:40.696Z,85.78
2019-06-15T00:22:40.832Z,85.20
2019-06-15T00:23:40.970Z,85.68
2019-06-15T00:24:41.099Z,85.39
2019-06-15T00:25:41.232Z,85.49
2019-06-15T00:26:41.373Z,85.20
2019-06-15T00:27:41.507Z,85.00
2019-06-15T00:28:41.651Z,84.91
2019-06-15T00:29:41.793Z,84.91
2019-06-15T00:30:41.937Z,84.97
2019-06-15T00:31:42.073Z,85.16
2019-06-15T00:32:42.213Z,85.00
2019-06-15T00:33:42.348Z,84.97
2019-06-15T00:34:42.475Z,85.54
2019-06-15T00:35:42.613Z,85.44
2019-06-15T00:36:42.752Z,84.97
2019-06-15T00:37:42.889Z,85.25
2019-06-15T00:38:43.019Z,85.54
2019-06-15T00:39:43.153Z,85.16
2019-06-15T00:40:43.286Z,85.25
2019-06-15T00:41:43.420Z,85.44
2019-06-15T00:42:43.553Z,86.12
2019-06-15T00:43:43.697Z,85.83
2019-06-15T00:44:43.830Z,85.83
2019-06-15T00:45:43.965Z,85.74
2019-06-15T00:46:44.099Z,85.93
2019-06-15T00:47:44.234Z,85.93
2019-06-15T00:48:44.367Z,86.02
2019-06-15T00:49:44.495Z,85.93
2019-06-15T00:50:44.631Z,85.93
2019-06-15T00:51:44.761Z,86.12
2019-06-15T00:52:44.900Z,86.22
2019-06-15T00:53:45.020Z,85.83
2019-06-15T00:54:50.455Z,86.31
2019-06-15T00:55:45.301Z,86.22
2019-06-15T00:56:45.432Z,86.02
2019-06-15T00:57:45.565Z,86.22
2019-06-15T00:58:45.761Z,86.12
2019-06-15T00:59:45.833Z,86.02
2019-06-15T01:00:45.966Z,85.93
2019-06-15T01:01:46.105Z,86.41
2019-06-15T01:02:46.238Z,86.22
2019-06-15T01:03:46.371Z,86.41
2019-06-15T01:04:46.508Z,86.22
2019-06-15T01:05:46.633Z,86.12
2019-06-15T01:06:46.771Z,86.41
2019-06-15T01:07:46.908Z,86.22
2019-06-15T01:08:47.034Z,85.93
2019-06-15T01:09:47.169Z,86.51
2019-06-15T01:10:47.306Z,86.51
2019-06-15T01:11:47.443Z,86.22
2019-06-15T01:12:47.579Z,86.12
2019-06-15T01:13:47.711Z,86.41
2019-06-15T01:14:47.850Z,86.22
2019-06-15T01:15:47.980Z,86.12
2019-06-15T01:16:48.111Z,86.51
2019-06-15T01:17:48.257Z,86.31
2019-06-15T01:18:48.395Z,86.31
2019-06-15T01:19:48.516Z,86.12
2019-06-15T01:20:48.658Z,86.60
2019-06-15T01:21:48.866Z,86.60
2019-06-15T01:22:48.918Z,86.60
2019-06-15T01:23:49.053Z,86.51
2019-06-15T01:24:49.182Z,86.60
2019-06-15T01:25:49.321Z,86.51
2019-06-15T01:26:49.459Z,86.41
2019-06-15T01:27:49.588Z,86.99
2019-06-15T01:28:49.724Z,87.18
2019-06-15T01:29:49.858Z,87.27
2019-06-15T01:30:49.995Z,86.99
2019-06-15T01:31:50.171Z,86.69
2019-06-15T01:32:50.285Z,87.95
2019-06-15T01:33:50.415Z,87.95
2019-06-15T01:34:50.546Z,87.76
2019-06-15T01:35:50.687Z,87.85
2019-06-15T01:36:50.811Z,88.04
2019-06-15T01:37:50.949Z,87.23
2019-06-15T01:38:51.104Z,87.66
2019-06-15T01:39:51.231Z,87.46
2019-06-15T01:40:51.363Z,87.76
2019-06-15T01:41:51.530Z,88.14
2019-06-15T01:42:51.655Z,88.53
2019-06-15T01:43:51.796Z,88.33
2019-06-15T01:44:51.935Z,88.19
2019-06-15T01:45:52.107Z,88.33
2019-06-15T01:46:52.218Z,88.14
2019-06-15T01:47:52.360Z,88.33
2019-06-15T01:48:52.486Z,88.24
2019-06-15T01:49:52.615Z,88.33
2019-06-15T01:50:52.854Z,88.24
2019-06-15T01:51:52.892Z,88.14
2019-06-15T01:52:53.030Z,87.90
2019-06-15T01:53:53.175Z,88.33
2019-06-15T01:54:53.294Z,88.04
2019-06-15T01:55:53.418Z,87.85
2019-06-15T01:56:53.558Z,87.46
2019-06-15T01:57:53.700Z,87.46
2019-06-15T01:58:53.833Z,87.46
2019-06-15T01:59:53.967Z,87.95
2019-06-15T02:00:54.154Z,87.85
2019-06-15T02:01:54.288Z,87.37
2019-06-15T02:02:54.466Z,88.14
2019-06-15T02:03:54.567Z,87.90
2019-06-15T02:04:54.702Z,88.39
2019-06-15T02:05:54.821Z,88.87
2019-06-15T02:06:54.972Z,89.15
2019-06-15T02:07:55.101Z,89.15
2019-06-15T02:08:55.240Z,88.67
2019-06-15T02:09:55.381Z,88.96
2019-06-15T02:10:55.533Z,88.77
2019-06-15T02:11:55.767Z,89.15
2019-06-15T02:12:55.781Z,89.59
2019-06-15T02:13:55.918Z,89.88
2019-06-15T02:14:56.062Z,90.65
2019-06-15T02:15:56.182Z,90.65
2019-06-15T02:16:56.320Z,90.55
2019-06-15T02:17:56.448Z,90.94
2019-06-15T02:18:56.578Z,90.65
2019-06-15T02:19:56.720Z,90.79
2019-06-15T02:20:56.852Z,90.98
2019-06-15T02:21:57.013Z,91.22
2019-06-15T02:22:57.148Z,90.59
2019-06-15T02:23:57.280Z,90.75
2019-06-15T02:24:57.413Z,90.98
2019-06-15T02:25:57.572Z,91.22
2019-06-15T02:26:57.701Z,91.90
2019-06-15T02:27:57.834Z,91.90
2019-06-15T02:28:57.992Z,92.38
2019-06-15T02:29:58.126Z,92.19
2019-06-15T02:30:58.254Z,92.38
2019-06-15T02:31:58.380Z,92.76
2019-06-15T02:32:58.546Z,92.47
2019-06-15T02:33:59.700Z,92.38
2019-06-15T02:34:58.835Z,92.29
2019-06-15T02:35:58.968Z,92.67
2019-06-15T02:36:59.137Z,92.19
2019-06-15T02:37:59.259Z,92.38
2019-06-15T02:38:59.399Z,92.29
2019-06-15T02:39:59.529Z,92.09
2019-06-15T02:40:59.730Z,92.91
2019-06-15T02:41:59.812Z,93.44
2019-06-15T02:42:59.938Z,93.34
2019-06-15T02:44:00.091Z,93.34
2019-06-15T02:45:00.235Z,93.15
2019-06-15T02:46:00.354Z,93.15
2019-06-15T02:47:00.511Z,92.76
2019-06-15T02:48:00.664Z,92.19
2019-06-15T02:49:00.784Z,92.47
2019-06-15T02:50:00.914Z,92.43
2019-06-15T02:51:01.060Z,91.99
2019-06-15T02:52:01.205Z,91.66
2019-06-15T02:53:01.335Z,91.17
2019-06-15T02:54:01.481Z,91.61
2019-06-15T02:55:01.622Z,91.27
2019-06-15T02:56:01.768Z,91.46
2019-06-15T02:57:02.052Z,91.56
2019-06-15T02:58:02.126Z,90.98
2019-06-15T02:59:02.181Z,91.17
2019-06-15T03:00:02.638Z,90.98
2019-06-15T03:01:02.466Z,90.59
2019-06-15T03:02:02.764Z,90.79
2019-06-15T03:03:02.792Z,90.59
2019-06-15T03:04:02.926Z,91.27
2019-06-15T03:05:03.058Z,90.59
2019-06-15T03:06:03.201Z,90.79
2019-06-15T03:07:03.329Z,91.36
2019-06-15T03:08:03.474Z,90.98
2019-06-15T03:09:03.608Z,90.79
2019-06-15T03:10:03.748Z,90.98
2019-06-15T03:11:03.876Z,91.08
2019-06-15T03:12:04.043Z,90.59
2019-06-15T03:13:04.171Z,90.89
2019-06-15T03:14:04.309Z,90.50
2019-06-15T03:15:04.440Z,90.59
2019-06-15T03:16:04.594Z,90.12
2019-06-15T03:17:04.723Z,90.41
2019-06-15T03:18:04.857Z,90.12
2019-06-15T03:19:04.991Z,89.68
2019-06-15T03:20:05.147Z,89.97
2019-06-15T03:21:05.344Z,90.12
2019-06-15T03:22:06.586Z,90.41
2019-06-15T03:23:05.480Z,90.26
2019-06-15T03:24:05.681Z,90.26
2019-06-15T03:25:05.775Z,90.41
2019-06-15T03:26:06.195Z,90.06
2019-06-15T03:27:06.036Z,89.83
2019-06-15T03:28:06.222Z,89.92
2019-06-15T03:30:38.512Z,90.26
2019-06-15T03:31:38.659Z,90.26
2019-06-15T03:32:38.786Z,90.16
2019-06-15T03:33:38.952Z,90.21
2019-06-15T03:34:39.069Z,90.35
2019-06-15T03:35:39.204Z,90.02
2019-06-15T03:36:39.362Z,89.97
2019-06-15T03:37:39.489Z,90.06
2019-06-15T03:38:39.625Z,90.16
2019-06-15T03:39:39.758Z,90.06
2019-06-15T03:40:39.906Z,90.26
2019-06-15T03:41:40.032Z,90.06
2019-06-15T03:42:40.161Z,90.35
2019-06-15T03:43:40.301Z,90.45
2019-06-15T03:44:40.455Z,90.06
2019-06-15T03:45:40.598Z,90.16
2019-06-15T03:46:40.722Z,90.45
2019-06-15T03:47:40.850Z,90.35
2019-06-15T03:48:40.980Z,90.45
2019-06-15T03:49:41.112Z,90.16
2019-06-15T03:50:41.239Z,90.26
2019-06-15T03:51:41.388Z,90.45
2019-06-15T03:52:41.525Z,90.26
2019-06-15T03:53:41.656Z,90.06
2019-06-15T03:54:41.808Z,90.26
2019-06-15T03:55:42.018Z,90.06
2019-06-15T03:56:42.033Z,89.97
2019-06-15T03:57:42.164Z,90.26
2019-06-15T03:58:42.322Z,89.97
2019-06-15T03:59:42.494Z,90.06
2019-06-15T04:00:42.585Z,89.87
2019-06-15T04:01:42.709Z,89.64
2019-06-15T04:02:42.836Z,90.02
2019-06-15T04:03:42.966Z,89.87
2019-06-15T04:04:43.164Z,89.87
2019-06-15T04:05:43.247Z,90.02
2019-06-15T04:06:43.379Z,89.83
2019-06-15T04:07:43.567Z,90.02
2019-06-15T04:08:43.747Z,90.41
2019-06-15T04:09:43.752Z,90.26
2019-06-15T04:10:43.898Z,90.93
2019-06-15T04:11:44.042Z,90.73
2019-06-15T04:12:44.287Z,90.50
2019-06-15T04:13:44.296Z,90.69
2019-06-15T04:14:44.424Z,90.73
2019-06-15T04:15:44.947Z,90.83
2019-06-15T04:16:44.707Z,90.45
2019-06-15T04:17:44.849Z,90.41
2019-06-15T04:18:44.959Z,90.64
2019-06-15T04:19:45.144Z,90.79
2019-06-15T04:20:45.280Z,90.73
2019-06-15T04:21:45.434Z,90.69
2019-06-15T04:22:45.567Z,90.21
2019-06-15T04:23:45.698Z,89.97
2019-06-15T04:24:45.835Z,89.92
2019-06-15T04:25:45.983Z,90.02
2019-06-15T04:26:46.103Z,90.26
2019-06-15T04:27:46.242Z,89.92
2019-06-15T04:28:46.367Z,90.06
2019-06-15T04:29:46.513Z,90.16
2019-06-15T04:30:46.646Z,91.08
2019-06-15T04:31:46.781Z,90.93
2019-06-15T04:32:46.946Z,90.59
2019-06-15T04:33:47.072Z,90.59
2019-06-15T04:34:47.204Z,90.59
2019-06-15T04:35:47.394Z,90.59
2019-06-15T04:36:47.464Z,90.41
2019-06-15T04:37:47.596Z,90.50
2019-06-15T04:38:47.766Z,91.17
2019-06-15T04:39:47.900Z,90.59
2019-06-15T04:40:48.034Z,90.98
2019-06-15T04:41:48.181Z,90.98
2019-06-15T04:42:48.304Z,90.69
2019-06-15T04:43:48.440Z,91.46
2019-06-15T04:44:48.569Z,91.51
2019-06-15T04:45:48.722Z,91.46
2019-06-15T04:46:48.864Z,91.51
2019-06-15T04:47:48.984Z,91.41
2019-06-15T04:48:49.140Z,91.60
2019-06-15T04:49:49.278Z,91.27
2019-06-15T04:50:49.422Z,91.31
2019-06-15T04:51:49.553Z,91.17
2019-06-15T04:52:49.691Z,91.13
2019-06-15T04:53:49.821Z,91.51
2019-06-15T04:54:49.972Z,91.36
2019-06-15T04:55:50.101Z,91.51
2019-06-15T04:56:51.287Z,91.60
2019-06-15T04:57:50.382Z,91.60
2019-06-15T04:58:50.546Z,91.51
2019-06-15T04:59:50.650Z,91.51
2019-06-15T05:00:50.787Z,91.41
2019-06-15T05:01:50.930Z,91.22
2019-06-15T05:02:51.216Z,91.31
2019-06-15T05:03:51.188Z,91.51
2019-06-15T05:04:51.310Z,91.99
2019-06-15T05:05:51.465Z,91.22
2019-06-15T05:06:51.594Z,91.31
2019-06-15T05:07:51.785Z,91.41
2019-06-15T05:08:51.889Z,91.51
2019-06-15T05:09:52.053Z,91.51
2019-06-15T05:10:52.155Z,91.41
2019-06-15T05:11:52.314Z,91.31
2019-06-15T05:12:52.447Z,90.83
2019-06-15T05:13:52.596Z,91.13
2019-06-15T05:14:52.733Z,90.06
2019-06-15T05:15:52.870Z,90.93
2019-06-15T05:16:53.007Z,91.60
2019-06-15T05:17:53.159Z,91.85
2019-06-15T05:18:53.292Z,92.43
2019-06-15T05:19:53.423Z,93.29
2019-06-15T05:20:53.559Z,94.40
2019-06-15T05:21:53.692Z,95.55
2019-06-15T05:22:53.820Z,96.22
2019-06-15T05:23:53.954Z,96.42
2019-06-15T05:24:54.103Z,96.37
2019-06-15T05:25:54.216Z,97.24
2019-06-15T05:27:05.985Z,97.14
2019-06-15T05:27:54.491Z,96.66
2019-06-15T05:28:54.622Z,97.24
2019-06-15T05:29:56.610Z,96.85
2019-06-15T05:30:54.904Z,96.75
2019-06-15T05:31:55.035Z,96.66
2019-06-15T05:32:55.159Z,97.04
2019-06-15T05:33:55.297Z,97.04
2019-06-15T05:34:55.437Z,97.19
2019-06-15T05:35:55.589Z,96.90
2019-06-15T05:36:55.714Z,97.09
2019-06-15T05:37:55.844Z,97.09
2019-06-15T05:38:56.002Z,96.80
2019-06-15T05:39:56.132Z,96.42
2019-06-15T05:40:56.264Z,96.51
2019-06-15T05:41:56.405Z,96.61
2019-06-15T05:42:56.555Z,96.32
2019-06-15T05:43:56.685Z,96.70
2019-06-15T05:44:56.822Z,96.61
2019-06-15T05:45:56.983Z,96.61
2019-06-15T05:46:57.099Z,96.22
2019-06-15T05:47:57.232Z,96.03
2019-06-15T05:48:57.370Z,95.94
2019-06-15T05:49:57.509Z,95.84
2019-06-15T05:50:58.655Z,95.26
2019-06-15T05:51:57.768Z,95.55
2019-06-15T05:52:57.903Z,95.55
2019-06-15T05:53:58.059Z,95.26
2019-06-15T05:54:58.274Z,95.45
2019-06-15T05:55:58.277Z,94.88
2019-06-15T05:56:58.407Z,94.49
2019-06-15T05:57:58.556Z,94.88
2019-06-15T05:58:58.688Z,94.68
2019-06-15T05:59:58.823Z,95.45
2019-06-15T06:00:58.944Z,94.98
2019-06-15T06:01:59.113Z,95.36
2019-06-15T06:02:59.245Z,95.65
2019-06-15T06:03:59.410Z,95.45
2019-06-15T06:04:59.548Z,95.02
2019-06-15T06:05:59.671Z,94.73
2019-06-15T06:06:59.829Z,94.59
2019-06-15T06:07:59.957Z,94.54
2019-06-15T06:09:00.094Z,94.83
2019-06-15T06:10:00.283Z,95.02
2019-06-15T06:11:03.034Z,95.40
2019-06-15T06:12:04.264Z,94.83
2019-06-15T06:13:00.608Z,94.73
2019-06-15T06:14:00.730Z,94.83
2019-06-15T06:15:00.874Z,95.02
2019-06-15T06:16:00.999Z,94.83
2019-06-15T06:17:01.133Z,94.78
2019-06-15T06:18:01.274Z,94.30
2019-06-15T06:19:01.406Z,94.10
2019-06-15T06:20:01.575Z,93.72
2019-06-15T06:21:01.688Z,92.95
2019-06-15T06:22:01.833Z,93.33
2019-06-15T06:23:01.959Z,93.43
2019-06-15T06:24:02.093Z,93.53
2019-06-15T06:25:02.250Z,93.24
2019-06-15T06:26:02.370Z,93.33
2019-06-15T06:27:02.499Z,93.72
2019-06-15T06:28:02.631Z,92.66
2019-06-15T06:29:02.772Z,92.57
2019-06-15T06:30:02.901Z,92.71
2019-06-15T06:31:03.035Z,92.32
2019-06-15T06:32:03.175Z,92.22
2019-06-15T06:33:03.300Z,91.94
2019-06-15T06:34:03.441Z,91.65
2019-06-15T06:35:03.570Z,92.71
2019-06-15T06:36:06.163Z,92.61
2019-06-15T06:37:03.829Z,92.66
2019-06-15T06:38:03.963Z,92.94
2019-06-15T06:39:04.109Z,92.85
2019-06-15T06:40:04.257Z,91.60
2019-06-15T06:41:04.516Z,91.69
2019-06-15T06:42:04.551Z,91.89
2019-06-15T06:43:04.689Z,90.73
2019-06-15T06:44:04.821Z,90.25
2019-06-15T06:45:04.954Z,90.06
2019-06-15T06:46:05.093Z,91.02
2019-06-15T06:47:05.224Z,91.64
2019-06-15T06:48:05.359Z,90.78
2019-06-15T06:49:05.474Z,90.83
2019-06-15T06:50:05.602Z,90.30
2019-06-15T06:51:05.757Z,90.20
2019-06-15T06:52:05.892Z,90.00
2019-06-15T06:53:06.026Z,89.39
2019-06-15T06:54:06.170Z,89.62
2019-06-15T06:55:06.304Z,88.90
2019-06-15T06:56:06.434Z,89.19
2019-06-15T06:57:06.575Z,89.29
2019-06-15T06:58:06.712Z,90.44
2019-06-15T06:59:06.839Z,89.72
2019-06-15T07:00:07.052Z,89.62
2019-06-15T07:01:07.133Z,89.33
2019-06-15T07:02:07.265Z,88.56
2019-06-15T07:03:07.395Z,89.43
2019-06-15T07:04:07.536Z,89.04
2019-06-15T07:05:07.684Z,87.60
2019-06-15T07:06:07.802Z,87.21
2019-06-15T07:07:07.970Z,87.30
2019-06-15T07:08:08.084Z,87.12
2019-06-15T07:09:08.236Z,87.21
2019-06-15T07:10:08.386Z,87.12
2019-06-15T07:11:08.505Z,87.64
2019-06-15T07:12:08.643Z,86.87
2019-06-15T07:13:08.796Z,86.58
2019-06-15T07:14:08.936Z,86.87
2019-06-15T07:15:09.066Z,87.83
2019-06-15T07:16:09.199Z,87.16
2019-06-15T07:17:09.333Z,86.96
2019-06-15T07:18:09.479Z,86.29
2019-06-15T07:19:09.618Z,85.03
2019-06-15T07:20:09.744Z,86.48
2019-06-15T07:21:09.878Z,86.96
2019-06-15T07:22:10.011Z,86.58
2019-06-15T07:23:10.160Z,86.77
2019-06-15T07:24:10.277Z,86.77
2019-06-15T07:25:10.411Z,86.29
2019-06-15T07:26:10.577Z,85.81
2019-06-15T07:27:10.715Z,86.39
2019-06-15T07:28:10.844Z,85.71
2019-06-15T07:29:10.985Z,85.91
2019-06-15T07:30:11.138Z,85.85
2019-06-15T07:31:11.273Z,84.46
2019-06-15T07:32:11.411Z,85.37
2019-06-15T07:33:11.547Z,83.15
2019-06-15T07:34:11.726Z,82.57
2019-06-15T07:35:11.815Z,80.99
2019-06-15T07:36:11.977Z,80.74
2019-06-15T07:37:12.100Z,81.99
2019-06-15T07:38:12.228Z,84.01
2019-06-15T07:39:12.361Z,84.69
2019-06-15T07:40:12.535Z,84.01
2019-06-15T07:41:12.658Z,82.76
2019-06-15T07:42:12.787Z,82.57
2019-06-15T07:43:12.930Z,82.57
2019-06-15T07:44:13.084Z,82.57
2019-06-15T07:45:13.216Z,81.80
2019-06-15T07:46:13.355Z,82.57
2019-06-15T07:47:13.492Z,81.32
2019-06-15T07:48:13.636Z,81.22
2019-06-15T07:49:13.794Z,81.70
2019-06-15T07:50:13.908Z,81.22
2019-06-15T07:51:14.043Z,81.22
2019-06-15T07:52:14.186Z,81.45
2019-06-15T07:53:14.445Z,81.55
2019-06-15T07:54:14.471Z,81.65
2019-06-15T07:55:14.572Z,82.03
2019-06-15T07:56:14.704Z,83.39
2019-06-15T07:57:14.834Z,80.87
2019-06-15T07:58:24.081Z,81.07
2019-06-15T07:59:15.093Z,81.30
2019-06-15T08:00:15.256Z,82.46
2019-06-15T08:01:15.394Z,83.23
2019-06-15T08:02:15.523Z,83.42
2019-06-15T08:03:15.674Z,83.23
2019-06-15T08:04:15.807Z,82.65
2019-06-15T08:05:15.955Z,82.94
2019-06-15T08:06:16.111Z,82.94
2019-06-15T08:07:16.259Z,82.71
2019-06-15T08:08:16.384Z,82.46
2019-06-15T08:09:16.514Z,81.74
2019-06-15T08:10:16.649Z,81.74
2019-06-15T08:11:16.796Z,82.75
2019-06-15T08:12:16.941Z,83.39
2019-06-15T08:13:17.076Z,83.72
2019-06-15T08:14:17.218Z,84.78
2019-06-15T08:15:17.382Z,85.16
2019-06-15T08:16:17.563Z,84.48
2019-06-15T08:17:17.674Z,83.62
2019-06-15T08:18:17.792Z,83.62
2019-06-15T08:19:17.928Z,84.00
2019-06-15T08:20:18.061Z,83.23
2019-06-15T08:21:18.194Z,82.26
2019-06-15T08:22:18.327Z,81.30
2019-06-15T08:23:18.459Z,81.40
2019-06-15T08:24:18.602Z,81.24
2019-06-15T08:25:18.754Z,79.99
2019-06-15T08:26:18.886Z,81.05
2019-06-15T08:27:19.010Z,79.70
2019-06-15T08:28:19.140Z,78.99
2019-06-15T08:29:19.279Z,79.08
2019-06-15T08:30:19.411Z,79.08
2019-06-15T08:31:19.556Z,79.27
2019-06-15T08:32:19.695Z,78.41
2019-06-15T08:33:19.836Z,78.79
2019-06-15T08:34:19.977Z,78.41
2019-06-15T08:35:20.101Z,79.47
2019-06-15T08:36:20.226Z,81.40
2019-06-15T08:37:20.377Z,79.66
2019-06-15T08:38:20.526Z,79.47
2019-06-15T08:39:20.649Z,80.33
2019-06-15T08:40:20.794Z,80.24
2019-06-15T08:41:20.916Z,79.75
2019-06-15T08:42:21.076Z,78.21
2019-06-15T08:43:21.215Z,78.99
2019-06-15T08:44:21.341Z,79.37
2019-06-15T08:45:21.472Z,78.99
2019-06-15T08:46:21.611Z,78.41
2019-06-15T08:47:21.754Z,79.47
2019-06-15T08:48:21.878Z,81.01
2019-06-15T08:49:22.047Z,81.20
2019-06-15T08:50:22.149Z,80.62
2019-06-15T08:51:22.302Z,79.17
2019-06-15T08:52:22.418Z,79.56
2019-06-15T08:53:22.552Z,80.05
2019-06-15T08:54:22.712Z,79.47
2019-06-15T08:55:22.845Z,78.59
2019-06-15T08:56:22.977Z,79.27
2019-06-15T08:57:23.109Z,79.56
2019-06-15T08:58:23.254Z,79.27
2019-06-15T08:59:23.398Z,80.82
2019-06-15T09:00:23.544Z,80.14
2019-06-15T09:01:23.695Z,80.91
2019-06-15T09:02:23.811Z,79.85
2019-06-15T09:03:23.946Z,79.85
2019-06-15T09:04:24.081Z,80.91
2019-06-15T09:05:24.224Z,80.62
2019-06-15T09:06:24.359Z,80.05
2019-06-15T09:07:24.490Z,80.91
2019-06-15T09:08:24.638Z,81.11
2019-06-15T09:09:24.757Z,81.63
2019-06-15T09:10:24.891Z,82.02
2019-06-15T09:11:25.050Z,81.05
2019-06-15T09:12:25.222Z,78.34
2019-06-15T09:13:25.312Z,77.96
2019-06-15T09:14:25.452Z,78.15
2019-06-15T09:15:25.580Z,79.31
2019-06-15T09:16:25.955Z,79.02
2019-06-15T09:17:25.853Z,78.92
2019-06-15T09:18:26.002Z,79.89
2019-06-15T09:19:26.147Z,79.50
2019-06-15T09:20:26.287Z,79.89
2019-06-15T09:21:26.421Z,79.89
2019-06-15T09:22:26.548Z,80.03
2019-06-15T09:23:26.684Z,78.44
2019-06-15T09:24:26.844Z,76.80
2019-06-15T09:25:26.974Z,79.25
2019-06-15T09:26:27.112Z,80.22
2019-06-15T09:27:27.253Z,79.45
2019-06-15T09:28:27.381Z,78.96
2019-06-15T09:29:27.517Z,79.54
2019-06-15T09:30:27.653Z,78.29
2019-06-15T09:31:27.789Z,78.96
2019-06-15T09:32:27.929Z,77.28
2019-06-15T09:33:28.066Z,77.51
2019-06-15T09:34:28.195Z,78.25
2019-06-15T09:35:28.329Z,78.34
2019-06-15T09:36:28.467Z,80.41
2019-06-15T09:37:28.604Z,80.71
2019-06-15T09:38:28.762Z,79.64
2019-06-15T09:39:28.910Z,79.12
2019-06-15T09:40:29.022Z,79.93
2019-06-15T09:41:29.163Z,79.54
2019-06-15T09:42:29.301Z,78.38
2019-06-15T09:43:29.453Z,78.38
2019-06-15T09:44:29.577Z,78.38
2019-06-15T09:45:32.757Z,77.22
2019-06-15T09:46:29.877Z,78.29
2019-06-15T09:47:29.993Z,78.96
2019-06-15T09:48:30.134Z,79.35
2019-06-15T09:49:30.271Z,80.16
2019-06-15T09:50:30.415Z,79.25
2019-06-15T09:51:30.560Z,79.78
2019-06-15T09:52:30.691Z,80.22
2019-06-15T09:53:30.826Z,78.52
2019-06-15T09:54:30.976Z,77.55
2019-06-15T09:55:31.108Z,76.87
2019-06-15T09:56:31.243Z,77.55
2019-06-15T09:57:31.379Z,79.68
2019-06-15T09:58:31.510Z,76.97
2019-06-15T09:59:31.651Z,77.26
2019-06-15T10:00:31.804Z,77.36
2019-06-15T10:01:31.931Z,77.94
2019-06-15T10:02:32.065Z,77.84
2019-06-15T10:03:32.200Z,77.84
2019-06-15T10:04:32.345Z,77.61
2019-06-15T10:05:32.494Z,78.09
2019-06-15T10:06:32.613Z,78.48
2019-06-15T10:07:32.745Z,78.38
2019-06-15T10:08:32.893Z,79.25
2019-06-15T10:09:33.019Z,78.38
2019-06-15T10:10:33.204Z,77.71
2019-06-15T10:11:33.311Z,78.09
2019-06-15T10:12:33.440Z,78.38
2019-06-15T10:13:33.588Z,78.48
2019-06-15T10:14:33.714Z,78.29
2019-06-15T10:15:33.857Z,78.96
2019-06-15T10:16:33.978Z,79.64
2019-06-15T10:17:34.124Z,78.19
2019-06-15T10:18:34.269Z,78.71
2019-06-15T10:19:34.401Z,76.55
2019-06-15T10:20:34.557Z,78.52
2019-06-15T10:21:34.668Z,78.13
2019-06-15T10:22:34.817Z,77.90
2019-06-15T10:23:34.962Z,77.42
2019-06-15T10:24:35.102Z,76.93
2019-06-15T10:25:35.236Z,78.29
2019-06-15T10:26:35.378Z,78.33
2019-06-15T10:27:35.515Z,77.90
2019-06-15T10:28:35.666Z,77.90
2019-06-15T10:29:42.049Z,78.09
2019-06-15T10:30:35.913Z,76.84
2019-06-15T10:31:36.069Z,77.51
2019-06-15T10:32:36.207Z,77.51
2019-06-15T10:33:36.345Z,77.71
2019-06-15T10:34:36.508Z,76.84
2019-06-15T10:35:36.618Z,77.45
2019-06-15T10:36:36.753Z,77.84
2019-06-15T10:37:36.877Z,76.59
2019-06-15T10:38:37.018Z,76.20
2019-06-15T10:39:37.147Z,77.01
2019-06-15T10:40:37.291Z,77.20
2019-06-15T10:41:37.442Z,77.30
2019-06-15T10:42:37.573Z,76.43
2019-06-15T10:43:37.713Z,75.46
2019-06-15T10:44:37.847Z,75.23
2019-06-15T10:45:37.974Z,75.33
2019-06-15T10:46:38.106Z,76.53
2019-06-15T10:47:38.255Z,75.04
2019-06-15T10:48:38.381Z,74.55
2019-06-15T10:49:38.509Z,74.55
2019-06-15T10:50:38.650Z,74.27
2019-06-15T10:51:38.792Z,75.33
2019-06-15T10:52:38.950Z,74.21
2019-06-15T10:53:39.094Z,75.46
2019-06-15T10:54:39.213Z,73.53
2019-06-15T10:55:39.347Z,73.43
2019-06-15T10:56:39.495Z,73.04
2019-06-15T10:57:39.624Z,72.85
2019-06-15T10:58:39.755Z,72.46
2019-06-15T10:59:39.890Z,72.75
2019-06-15T11:00:40.038Z,73.63
2019-06-15T11:01:40.169Z,72.08
2019-06-15T11:02:40.300Z,73.24
2019-06-15T11:03:40.449Z,72.27
2019-06-15T11:04:40.573Z,72.85
2019-06-15T11:05:40.703Z,75.27
2019-06-15T11:06:40.852Z,76.91
2019-06-15T11:07:40.985Z,76.66
2019-06-15T11:08:41.133Z,76.76
2019-06-15T11:09:41.269Z,72.40
2019-06-15T11:10:41.418Z,68.73
2019-06-15T11:11:41.562Z,67.27
2019-06-15T11:12:46.139Z,68.15
2019-06-15T11:13:41.825Z,68.33
2019-06-15T11:14:41.965Z,66.60
2019-06-15T11:15:42.113Z,66.69
2019-06-15T11:16:42.254Z,68.15
2019-06-15T11:17:42.395Z,67.85
2019-06-15T11:18:42.528Z,68.37
2019-06-15T11:19:42.675Z,69.15
2019-06-15T11:20:42.819Z,67.11
2019-06-15T11:21:42.962Z,66.92
2019-06-15T11:22:43.089Z,67.50
2019-06-15T11:23:43.238Z,67.11
2019-06-15T11:24:43.398Z,65.37
2019-06-15T11:25:43.524Z,64.85
2019-06-15T11:26:43.686Z,64.95
2019-06-15T11:27:43.808Z,66.30
2019-06-15T11:28:43.946Z,66.69
2019-06-15T11:29:44.072Z,67.37
2019-06-15T11:30:44.219Z,68.05
2019-06-15T11:31:44.381Z,67.85
2019-06-15T11:32:44.549Z,66.69
2019-06-15T11:33:44.682Z,67.95
2019-06-15T11:34:44.821Z,66.78
2019-06-15T11:35:44.969Z,65.72
2019-06-15T11:36:45.095Z,66.69
2019-06-15T11:37:45.236Z,65.53
2019-06-15T11:38:45.362Z,66.78
2019-06-15T11:39:45.627Z,65.75
2019-06-15T11:40:45.635Z,65.66
2019-06-15T11:41:45.780Z,66.82
2019-06-15T11:42:45.922Z,67.11
2019-06-15T11:43:46.060Z,66.92
2019-06-15T11:44:46.187Z,68.08
2019-06-15T11:45:46.328Z,69.05
2019-06-15T11:46:46.469Z,69.53
2019-06-15T11:47:46.625Z,66.92
2019-06-15T11:48:46.740Z,66.24
2019-06-15T11:49:46.878Z,67.69
2019-06-15T11:50:47.009Z,66.72
2019-06-15T11:51:47.150Z,66.72
2019-06-15T11:52:47.278Z,64.40
2019-06-15T11:53:47.416Z,65.95
2019-06-15T11:54:47.556Z,64.59
2019-06-15T11:55:47.677Z,65.56
2019-06-15T11:56:47.819Z,66.82
2019-06-15T11:57:47.949Z,66.72
2019-06-15T11:58:48.098Z,67.24
2019-06-15T11:59:48.239Z,69.18
2019-06-15T12:00:48.367Z,66.95
2019-06-15T12:01:48.498Z,65.79
2019-06-15T12:02:48.630Z,65.69
2019-06-15T12:03:48.779Z,67.24
2019-06-15T12:04:57.914Z,65.40
2019-06-15T12:05:49.054Z,64.92
2019-06-15T12:06:49.186Z,67.05
2019-06-15T12:07:49.383Z,67.72
2019-06-15T12:08:49.520Z,65.50
2019-06-15T12:09:49.664Z,66.37
2019-06-15T12:10:49.820Z,65.47
2019-06-15T12:11:49.941Z,66.14
2019-06-15T12:12:50.086Z,67.02
2019-06-15T12:13:50.210Z,67.92
2019-06-15T12:14:50.372Z,67.14
2019-06-15T12:15:50.503Z,68.50
2019-06-15T12:16:50.636Z,69.27
2019-06-15T12:17:50.781Z,68.24
2019-06-15T12:18:50.914Z,66.79
2019-06-15T12:19:51.055Z,65.82
2019-06-15T12:20:51.194Z,65.82
2019-06-15T12:21:51.343Z,64.95
2019-06-15T12:22:51.476Z,64.56
2019-06-15T12:23:51.617Z,64.75
2019-06-15T12:24:51.781Z,65.24
2019-06-15T12:25:51.912Z,65.72
2019-06-15T12:26:52.047Z,65.63
2019-06-15T12:27:52.187Z,64.65
2019-06-15T12:28:52.323Z,65.82
2019-06-15T12:29:52.481Z,63.69
2019-06-15T12:30:52.612Z,63.20
2019-06-15T12:31:52.760Z,63.30
2019-06-15T12:32:52.887Z,62.43
2019-06-15T12:33:53.046Z,63.49
2019-06-15T12:34:53.177Z,62.04
2019-06-15T12:35:53.313Z,61.65
2019-06-15T12:36:53.461Z,63.01
2019-06-15T12:37:53.641Z,61.65
2019-06-15T12:38:53.754Z,62.52
2019-06-15T12:39:53.888Z,61.85
2019-06-15T12:40:54.035Z,63.40
2019-06-15T12:41:54.188Z,63.59
2019-06-15T12:42:54.309Z,64.37
2019-06-15T12:43:54.452Z,63.49
2019-06-15T12:44:54.587Z,61.55
2019-06-15T12:45:57.651Z,62.52
2019-06-15T12:46:54.874Z,61.46
2019-06-15T12:47:55.018Z,62.07
2019-06-15T12:48:55.207Z,63.72
2019-06-15T12:49:55.339Z,62.85
2019-06-15T12:50:55.477Z,63.40
2019-06-15T12:51:55.628Z,64.17
2019-06-15T12:52:55.772Z,64.07
2019-06-15T12:53:55.900Z,63.20
2019-06-15T12:54:56.048Z,62.82
2019-06-15T12:55:56.176Z,63.10